sensor_id;sensor_type;location;lat;lon;timestamp;P1;durP1;ratioP1;P2;durP2;ratioP2
1725;SDS011;41776;48.260;8.928;2023-06-26T00:01:00;8.52;;;5.72;;
1725;SDS011;41776;48.260;8.928;2023-06-26T00:03:27;9.38;;;6.07;;
1725;SDS011;41776;48.260;8.928;2023-06-26T00:05:54;10.52;;;6.38;;
1725;SDS011;41776;48.260;8.928;2023-06-26T00:08:25;11.63;;;6.65;;
1725;SDS011;41776;48.260;8.928;2023-06-26T00:10:52;11.27;;;5.85;;
1725;SDS011;41776;48.260;8.928;2023-06-26T00:13:20;11.32;;;6.55;;
1725;SDS011;41776;48.260;8.928;2023-06-26T00:15:48;10.00;;;6.15;;
1725;SDS011;41776;48.260;8.928;2023-06-26T00:18:14;8.90;;;6.15;;
1725;SDS011;41776;48.260;8.928;2023-06-26T00:20:41;11.50;;;6.20;;
1725;SDS011;41776;48.260;8.928;2023-06-26T00:23:07;12.00;;;6.05;;
1725;SDS011;41776;48.260;8.928;2023-06-26T00:25:34;10.80;;;5.75;;
1725;SDS011;41776;48.260;8.928;2023-06-26T00:28:00;11.57;;;6.88;;
1725;SDS011;41776;48.260;8.928;2023-06-26T00:30:28;9.30;;;5.75;;
1725;SDS011;41776;48.260;8.928;2023-06-26T00:32:55;11.02;;;6.00;;
1725;SDS011;41776;48.260;8.928;2023-06-26T00:35:21;9.73;;;6.07;;
1725;SDS011;41776;48.260;8.928;2023-06-26T00:37:48;10.68;;;5.93;;
1725;SDS011;41776;48.260;8.928;2023-06-26T00:40:14;9.83;;;6.30;;
1725;SDS011;41776;48.260;8.928;2023-06-26T00:42:41;11.18;;;6.30;;
1725;SDS011;41776;48.260;8.928;2023-06-26T00:45:07;12.05;;;6.65;;
1725;SDS011;41776;48.260;8.928;2023-06-26T00:47:35;11.05;;;6.32;;
1725;SDS011;41776;48.260;8.928;2023-06-26T00:50:03;12.13;;;6.05;;
1725;SDS011;41776;48.260;8.928;2023-06-26T00:52:31;11.05;;;6.10;;
1725;SDS011;41776;48.260;8.928;2023-06-26T00:54:58;12.70;;;6.63;;
1725;SDS011;41776;48.260;8.928;2023-06-26T00:57:24;8.95;;;5.78;;
1725;SDS011;41776;48.260;8.928;2023-06-26T00:59:51;12.60;;;5.45;;
1725;SDS011;41776;48.260;8.928;2023-06-26T01:02:17;10.18;;;6.28;;
1725;SDS011;41776;48.260;8.928;2023-06-26T01:04:46;10.50;;;5.78;;
1725;SDS011;41776;48.260;8.928;2023-06-26T01:07:14;10.38;;;6.28;;
1725;SDS011;41776;48.260;8.928;2023-06-26T01:09:43;9.20;;;5.88;;
1725;SDS011;41776;48.260;8.928;2023-06-26T01:12:11;9.50;;;6.20;;
1725;SDS011;41776;48.260;8.928;2023-06-26T01:14:37;11.52;;;5.60;;
1725;SDS011;41776;48.260;8.928;2023-06-26T01:17:04;11.05;;;6.40;;
1725;SDS011;41776;48.260;8.928;2023-06-26T01:19:32;10.80;;;6.90;;
1725;SDS011;41776;48.260;8.928;2023-06-26T01:22:02;9.85;;;5.80;;
1725;SDS011;41776;48.260;8.928;2023-06-26T01:24:42;9.73;;;5.63;;
1725;SDS011;41776;48.260;8.928;2023-06-26T01:27:18;12.25;;;6.30;;
1725;SDS011;41776;48.260;8.928;2023-06-26T01:29:46;9.40;;;5.90;;
1725;SDS011;41776;48.260;8.928;2023-06-26T01:32:14;10.88;;;6.07;;
1725;SDS011;41776;48.260;8.928;2023-06-26T01:34:41;9.73;;;5.90;;
1725;SDS011;41776;48.260;8.928;2023-06-26T01:37:09;8.45;;;5.78;;
1725;SDS011;41776;48.260;8.928;2023-06-26T01:39:36;10.98;;;5.82;;
1725;SDS011;41776;48.260;8.928;2023-06-26T01:42:02;11.90;;;6.07;;
1725;SDS011;41776;48.260;8.928;2023-06-26T01:44:32;9.55;;;5.82;;
1725;SDS011;41776;48.260;8.928;2023-06-26T01:47:03;10.88;;;5.93;;
1725;SDS011;41776;48.260;8.928;2023-06-26T01:49:33;12.45;;;6.03;;
1725;SDS011;41776;48.260;8.928;2023-06-26T01:52:07;9.43;;;5.30;;
1725;SDS011;41776;48.260;8.928;2023-06-26T01:54:42;9.23;;;5.45;;
1725;SDS011;41776;48.260;8.928;2023-06-26T01:57:15;8.20;;;5.43;;
1725;SDS011;41776;48.260;8.928;2023-06-26T01:59:45;8.95;;;5.75;;
1725;SDS011;41776;48.260;8.928;2023-06-26T02:02:13;8.93;;;5.53;;
1725;SDS011;41776;48.260;8.928;2023-06-26T02:04:40;9.65;;;5.45;;
1725;SDS011;41776;48.260;8.928;2023-06-26T02:07:07;8.82;;;5.65;;
1725;SDS011;41776;48.260;8.928;2023-06-26T02:09:34;9.27;;;5.80;;
1725;SDS011;41776;48.260;8.928;2023-06-26T02:12:01;9.73;;;6.20;;
1725;SDS011;41776;48.260;8.928;2023-06-26T02:14:27;12.50;;;6.15;;
1725;SDS011;41776;48.260;8.928;2023-06-26T02:16:55;9.85;;;5.85;;
1725;SDS011;41776;48.260;8.928;2023-06-26T02:19:22;13.88;;;6.20;;
1725;SDS011;41776;48.260;8.928;2023-06-26T02:21:50;9.95;;;5.50;;
1725;SDS011;41776;48.260;8.928;2023-06-26T02:24:16;11.02;;;5.75;;
1725;SDS011;41776;48.260;8.928;2023-06-26T02:26:43;9.55;;;6.00;;
1725;SDS011;41776;48.260;8.928;2023-06-26T02:29:09;8.00;;;5.63;;
1725;SDS011;41776;48.260;8.928;2023-06-26T02:31:36;12.77;;;6.00;;
1725;SDS011;41776;48.260;8.928;2023-06-26T02:34:04;8.85;;;5.38;;
1725;SDS011;41776;48.260;8.928;2023-06-26T02:36:30;8.82;;;6.05;;
1725;SDS011;41776;48.260;8.928;2023-06-26T02:38:57;10.13;;;5.93;;
1725;SDS011;41776;48.260;8.928;2023-06-26T02:41:23;10.07;;;6.00;;
1725;SDS011;41776;48.260;8.928;2023-06-26T02:43:50;10.70;;;6.18;;
1725;SDS011;41776;48.260;8.928;2023-06-26T02:46:16;8.52;;;5.35;;
1725;SDS011;41776;48.260;8.928;2023-06-26T02:48:43;11.63;;;6.68;;
1725;SDS011;41776;48.260;8.928;2023-06-26T02:51:11;8.48;;;5.68;;
1725;SDS011;41776;48.260;8.928;2023-06-26T02:53:37;13.10;;;5.55;;
1725;SDS011;41776;48.260;8.928;2023-06-26T02:56:04;9.20;;;5.57;;
1725;SDS011;41776;48.260;8.928;2023-06-26T02:58:30;9.32;;;6.13;;
1725;SDS011;41776;48.260;8.928;2023-06-26T03:00:57;9.13;;;5.88;;
1725;SDS011;41776;48.260;8.928;2023-06-26T03:03:23;10.68;;;5.60;;
1725;SDS011;41776;48.260;8.928;2023-06-26T03:05:50;10.88;;;5.78;;
1725;SDS011;41776;48.260;8.928;2023-06-26T03:08:18;11.20;;;6.43;;
1725;SDS011;41776;48.260;8.928;2023-06-26T03:10:44;11.90;;;6.00;;
1725;SDS011;41776;48.260;8.928;2023-06-26T03:13:10;7.38;;;5.03;;
1725;SDS011;41776;48.260;8.928;2023-06-26T03:15:37;9.00;;;5.20;;
1725;SDS011;41776;48.260;8.928;2023-06-26T03:18:03;11.93;;;5.97;;
1725;SDS011;41776;48.260;8.928;2023-06-26T03:20:30;9.10;;;5.97;;
1725;SDS011;41776;48.260;8.928;2023-06-26T03:22:56;10.80;;;5.85;;
1725;SDS011;41776;48.260;8.928;2023-06-26T03:25:24;10.02;;;5.68;;
1725;SDS011;41776;48.260;8.928;2023-06-26T03:27:52;10.63;;;5.85;;
1725;SDS011;41776;48.260;8.928;2023-06-26T03:30:18;10.60;;;5.65;;
1725;SDS011;41776;48.260;8.928;2023-06-26T03:32:45;9.57;;;5.47;;
1725;SDS011;41776;48.260;8.928;2023-06-26T03:35:11;10.55;;;5.55;;
1725;SDS011;41776;48.260;8.928;2023-06-26T03:37:38;9.90;;;5.53;;
1725;SDS011;41776;48.260;8.928;2023-06-26T03:40:05;10.13;;;5.55;;
1725;SDS011;41776;48.260;8.928;2023-06-26T03:42:34;11.85;;;5.20;;
1725;SDS011;41776;48.260;8.928;2023-06-26T03:45:01;9.70;;;5.78;;
1725;SDS011;41776;48.260;8.928;2023-06-26T03:47:27;9.52;;;5.88;;
1725;SDS011;41776;48.260;8.928;2023-06-26T03:49:54;9.38;;;6.05;;
1725;SDS011;41776;48.260;8.928;2023-06-26T03:52:20;9.45;;;5.63;;
1725;SDS011;41776;48.260;8.928;2023-06-26T03:54:47;7.53;;;5.30;;
1725;SDS011;41776;48.260;8.928;2023-06-26T03:57:14;9.80;;;5.63;;
1725;SDS011;41776;48.260;8.928;2023-06-26T03:59:41;9.65;;;6.00;;
1725;SDS011;41776;48.260;8.928;2023-06-26T04:02:08;9.38;;;5.60;;
1725;SDS011;41776;48.260;8.928;2023-06-26T04:04:34;14.50;;;6.32;;
1725;SDS011;41776;48.260;8.928;2023-06-26T04:07:01;13.45;;;5.93;;
1725;SDS011;41776;48.260;8.928;2023-06-26T04:09:27;9.88;;;5.43;;
1725;SDS011;41776;48.260;8.928;2023-06-26T04:11:54;11.80;;;5.28;;
1725;SDS011;41776;48.260;8.928;2023-06-26T04:14:20;8.65;;;5.43;;
1725;SDS011;41776;48.260;8.928;2023-06-26T04:16:48;8.18;;;5.10;;
1725;SDS011;41776;48.260;8.928;2023-06-26T04:19:14;8.82;;;5.57;;
1725;SDS011;41776;48.260;8.928;2023-06-26T04:21:41;8.13;;;5.57;;
1725;SDS011;41776;48.260;8.928;2023-06-26T04:24:07;11.80;;;5.97;;
1725;SDS011;41776;48.260;8.928;2023-06-26T04:26:34;8.75;;;5.40;;
1725;SDS011;41776;48.260;8.928;2023-06-26T04:29:00;9.48;;;5.05;;
1725;SDS011;41776;48.260;8.928;2023-06-26T04:31:28;8.43;;;5.57;;
1725;SDS011;41776;48.260;8.928;2023-06-26T04:33:56;7.97;;;5.10;;
1725;SDS011;41776;48.260;8.928;2023-06-26T04:36:24;10.27;;;5.57;;
1725;SDS011;41776;48.260;8.928;2023-06-26T04:38:53;10.45;;;5.68;;
1725;SDS011;41776;48.260;8.928;2023-06-26T04:41:20;8.98;;;5.53;;
1725;SDS011;41776;48.260;8.928;2023-06-26T04:43:47;7.55;;;5.40;;
1725;SDS011;41776;48.260;8.928;2023-06-26T04:46:13;7.82;;;5.32;;
1725;SDS011;41776;48.260;8.928;2023-06-26T04:48:40;11.95;;;5.75;;
1725;SDS011;41776;48.260;8.928;2023-06-26T04:51:08;10.10;;;5.57;;
1725;SDS011;41776;48.260;8.928;2023-06-26T04:53:34;10.57;;;5.80;;
1725;SDS011;41776;48.260;8.928;2023-06-26T04:56:00;9.25;;;5.70;;
1725;SDS011;41776;48.260;8.928;2023-06-26T04:58:27;10.00;;;5.93;;
1725;SDS011;41776;48.260;8.928;2023-06-26T05:00:53;7.95;;;5.00;;
1725;SDS011;41776;48.260;8.928;2023-06-26T05:03:20;7.55;;;5.22;;
1725;SDS011;41776;48.260;8.928;2023-06-26T05:05:47;9.77;;;5.20;;
1725;SDS011;41776;48.260;8.928;2023-06-26T05:08:17;8.05;;;4.90;;
1725;SDS011;41776;48.260;8.928;2023-06-26T05:10:45;8.18;;;5.30;;
1725;SDS011;41776;48.260;8.928;2023-06-26T05:13:11;9.35;;;5.50;;
1725;SDS011;41776;48.260;8.928;2023-06-26T05:15:40;7.55;;;5.30;;
1725;SDS011;41776;48.260;8.928;2023-06-26T05:18:06;10.82;;;6.10;;
1725;SDS011;41776;48.260;8.928;2023-06-26T05:20:33;8.32;;;5.47;;
1725;SDS011;41776;48.260;8.928;2023-06-26T05:23:00;10.07;;;5.63;;
1725;SDS011;41776;48.260;8.928;2023-06-26T05:25:29;7.93;;;5.47;;
1725;SDS011;41776;48.260;8.928;2023-06-26T05:27:56;8.93;;;4.95;;
1725;SDS011;41776;48.260;8.928;2023-06-26T05:30:23;7.95;;;5.20;;
1725;SDS011;41776;48.260;8.928;2023-06-26T05:32:51;9.75;;;5.28;;
1725;SDS011;41776;48.260;8.928;2023-06-26T05:35:19;10.05;;;5.35;;
1725;SDS011;41776;48.260;8.928;2023-06-26T05:37:46;7.70;;;5.22;;
1725;SDS011;41776;48.260;8.928;2023-06-26T05:40:15;10.80;;;5.43;;
1725;SDS011;41776;48.260;8.928;2023-06-26T05:42:44;8.48;;;5.60;;
1725;SDS011;41776;48.260;8.928;2023-06-26T05:45:11;9.18;;;5.43;;
1725;SDS011;41776;48.260;8.928;2023-06-26T05:47:38;8.20;;;4.70;;
1725;SDS011;41776;48.260;8.928;2023-06-26T05:50:05;7.72;;;4.80;;
1725;SDS011;41776;48.260;8.928;2023-06-26T05:52:33;9.73;;;5.30;;
1725;SDS011;41776;48.260;8.928;2023-06-26T05:55:00;6.75;;;4.80;;
1725;SDS011;41776;48.260;8.928;2023-06-26T05:57:27;8.57;;;5.43;;
1725;SDS011;41776;48.260;8.928;2023-06-26T05:59:56;9.65;;;4.75;;
1725;SDS011;41776;48.260;8.928;2023-06-26T06:02:23;8.23;;;4.85;;
1725;SDS011;41776;48.260;8.928;2023-06-26T06:04:50;9.77;;;5.53;;
1725;SDS011;41776;48.260;8.928;2023-06-26T06:07:16;7.68;;;4.90;;
1725;SDS011;41776;48.260;8.928;2023-06-26T06:09:43;7.35;;;4.90;;
1725;SDS011;41776;48.260;8.928;2023-06-26T06:12:09;7.30;;;5.05;;
1725;SDS011;41776;48.260;8.928;2023-06-26T06:14:36;8.57;;;4.60;;
1725;SDS011;41776;48.260;8.928;2023-06-26T06:17:04;7.28;;;4.80;;
1725;SDS011;41776;48.260;8.928;2023-06-26T06:19:30;11.35;;;5.07;;
1725;SDS011;41776;48.260;8.928;2023-06-26T06:21:57;6.68;;;4.70;;
1725;SDS011;41776;48.260;8.928;2023-06-26T06:24:23;7.65;;;4.63;;
1725;SDS011;41776;48.260;8.928;2023-06-26T06:26:50;7.20;;;4.57;;
1725;SDS011;41776;48.260;8.928;2023-06-26T06:29:16;7.25;;;4.78;;
1725;SDS011;41776;48.260;8.928;2023-06-26T06:31:44;7.88;;;4.40;;
1725;SDS011;41776;48.260;8.928;2023-06-26T06:34:11;6.47;;;4.40;;
1725;SDS011;41776;48.260;8.928;2023-06-26T06:36:38;6.18;;;4.05;;
1725;SDS011;41776;48.260;8.928;2023-06-26T06:39:05;8.20;;;4.50;;
1725;SDS011;41776;48.260;8.928;2023-06-26T06:41:32;6.68;;;4.28;;
1725;SDS011;41776;48.260;8.928;2023-06-26T06:43:58;5.57;;;3.88;;
1725;SDS011;41776;48.260;8.928;2023-06-26T06:46:25;6.53;;;4.32;;
1725;SDS011;41776;48.260;8.928;2023-06-26T06:48:52;8.15;;;4.25;;
1725;SDS011;41776;48.260;8.928;2023-06-26T06:51:20;6.53;;;4.13;;
1725;SDS011;41776;48.260;8.928;2023-06-26T06:53:46;5.60;;;3.92;;
1725;SDS011;41776;48.260;8.928;2023-06-26T06:56:12;7.65;;;4.40;;
1725;SDS011;41776;48.260;8.928;2023-06-26T06:58:39;8.68;;;4.13;;
1725;SDS011;41776;48.260;8.928;2023-06-26T07:01:07;7.35;;;4.13;;
1725;SDS011;41776;48.260;8.928;2023-06-26T07:03:34;6.25;;;3.83;;
1725;SDS011;41776;48.260;8.928;2023-06-26T07:06:01;6.20;;;3.92;;
1725;SDS011;41776;48.260;8.928;2023-06-26T07:08:29;5.85;;;4.20;;
1725;SDS011;41776;48.260;8.928;2023-06-26T07:10:56;11.55;;;4.20;;
1725;SDS011;41776;48.260;8.928;2023-06-26T07:13:23;6.75;;;4.30;;
1725;SDS011;41776;48.260;8.928;2023-06-26T07:15:49;6.13;;;4.05;;
1725;SDS011;41776;48.260;8.928;2023-06-26T07:18:16;5.63;;;4.22;;
1725;SDS011;41776;48.260;8.928;2023-06-26T07:20:42;8.00;;;4.13;;
1725;SDS011;41776;48.260;8.928;2023-06-26T07:23:09;7.32;;;4.20;;
1725;SDS011;41776;48.260;8.928;2023-06-26T07:25:37;7.07;;;4.50;;
1725;SDS011;41776;48.260;8.928;2023-06-26T07:28:05;6.20;;;4.07;;
1725;SDS011;41776;48.260;8.928;2023-06-26T07:30:36;11.60;;;3.78;;
1725;SDS011;41776;48.260;8.928;2023-06-26T07:33:02;5.78;;;4.13;;
1725;SDS011;41776;48.260;8.928;2023-06-26T07:35:29;9.43;;;4.00;;
1725;SDS011;41776;48.260;8.928;2023-06-26T07:37:55;6.20;;;4.30;;
1725;SDS011;41776;48.260;8.928;2023-06-26T07:40:22;10.70;;;4.55;;
1725;SDS011;41776;48.260;8.928;2023-06-26T07:42:50;6.07;;;4.32;;
1725;SDS011;41776;48.260;8.928;2023-06-26T07:45:16;7.82;;;4.60;;
1725;SDS011;41776;48.260;8.928;2023-06-26T07:47:43;6.68;;;4.18;;
1725;SDS011;41776;48.260;8.928;2023-06-26T07:50:10;5.60;;;4.25;;
1725;SDS011;41776;48.260;8.928;2023-06-26T07:52:36;5.78;;;4.20;;
1725;SDS011;41776;48.260;8.928;2023-06-26T07:55:03;6.53;;;4.28;;
1725;SDS011;41776;48.260;8.928;2023-06-26T07:57:30;6.38;;;4.20;;
1725;SDS011;41776;48.260;8.928;2023-06-26T07:59:58;5.88;;;4.30;;
1725;SDS011;41776;48.260;8.928;2023-06-26T08:02:25;7.75;;;4.20;;
1725;SDS011;41776;48.260;8.928;2023-06-26T08:04:51;8.43;;;4.70;;
1725;SDS011;41776;48.260;8.928;2023-06-26T08:07:18;10.38;;;4.30;;
1725;SDS011;41776;48.260;8.928;2023-06-26T08:09:44;7.40;;;4.25;;
1725;SDS011;41776;48.260;8.928;2023-06-26T08:12:11;10.50;;;4.45;;
1725;SDS011;41776;48.260;8.928;2023-06-26T08:14:37;7.38;;;4.32;;
1725;SDS011;41776;48.260;8.928;2023-06-26T08:17:05;5.47;;;3.97;;
1725;SDS011;41776;48.260;8.928;2023-06-26T08:19:32;6.00;;;4.38;;
1725;SDS011;41776;48.260;8.928;2023-06-26T08:21:58;9.35;;;4.68;;
1725;SDS011;41776;48.260;8.928;2023-06-26T08:24:28;5.95;;;3.70;;
1725;SDS011;41776;48.260;8.928;2023-06-26T08:26:57;8.60;;;4.20;;
1725;SDS011;41776;48.260;8.928;2023-06-26T08:29:32;7.45;;;4.03;;
1725;SDS011;41776;48.260;8.928;2023-06-26T08:32:00;8.23;;;4.35;;
1725;SDS011;41776;48.260;8.928;2023-06-26T08:34:29;6.32;;;4.50;;
1725;SDS011;41776;48.260;8.928;2023-06-26T08:36:56;7.70;;;4.38;;
1725;SDS011;41776;48.260;8.928;2023-06-26T08:39:22;8.30;;;4.72;;
1725;SDS011;41776;48.260;8.928;2023-06-26T08:41:49;7.30;;;4.07;;
1725;SDS011;41776;48.260;8.928;2023-06-26T08:44:18;6.95;;;4.50;;
1725;SDS011;41776;48.260;8.928;2023-06-26T08:46:49;7.78;;;4.15;;
1725;SDS011;41776;48.260;8.928;2023-06-26T08:49:18;6.70;;;4.70;;
1725;SDS011;41776;48.260;8.928;2023-06-26T08:51:49;8.65;;;5.00;;
1725;SDS011;41776;48.260;8.928;2023-06-26T08:54:22;9.18;;;4.90;;
1725;SDS011;41776;48.260;8.928;2023-06-26T08:56:57;7.60;;;4.65;;
1725;SDS011;41776;48.260;8.928;2023-06-26T08:59:25;9.15;;;4.68;;
1725;SDS011;41776;48.260;8.928;2023-06-26T09:01:52;6.22;;;4.68;;
1725;SDS011;41776;48.260;8.928;2023-06-26T09:04:18;9.98;;;4.55;;
1725;SDS011;41776;48.260;8.928;2023-06-26T09:06:45;6.18;;;4.50;;
1725;SDS011;41776;48.260;8.928;2023-06-26T09:09:13;9.50;;;4.32;;
1725;SDS011;41776;48.260;8.928;2023-06-26T09:11:39;9.00;;;4.50;;
1725;SDS011;41776;48.260;8.928;2023-06-26T09:14:06;7.38;;;4.60;;
1725;SDS011;41776;48.260;8.928;2023-06-26T09:16:39;7.13;;;4.20;;
1725;SDS011;41776;48.260;8.928;2023-06-26T09:19:08;6.45;;;4.47;;
1725;SDS011;41776;48.260;8.928;2023-06-26T09:21:36;7.00;;;4.63;;
1725;SDS011;41776;48.260;8.928;2023-06-26T09:24:04;6.30;;;4.43;;
1725;SDS011;41776;48.260;8.928;2023-06-26T09:26:34;10.18;;;4.25;;
1725;SDS011;41776;48.260;8.928;2023-06-26T09:29:01;6.88;;;4.57;;
1725;SDS011;41776;48.260;8.928;2023-06-26T09:31:28;9.35;;;4.90;;
1725;SDS011;41776;48.260;8.928;2023-06-26T09:33:55;9.30;;;4.40;;
1725;SDS011;41776;48.260;8.928;2023-06-26T09:36:26;8.68;;;4.65;;
1725;SDS011;41776;48.260;8.928;2023-06-26T09:38:54;6.82;;;3.90;;
1725;SDS011;41776;48.260;8.928;2023-06-26T09:41:20;7.22;;;4.30;;
1725;SDS011;41776;48.260;8.928;2023-06-26T09:43:48;7.78;;;3.92;;
1725;SDS011;41776;48.260;8.928;2023-06-26T09:46:15;6.75;;;4.45;;
1725;SDS011;41776;48.260;8.928;2023-06-26T09:48:42;10.80;;;4.40;;
1725;SDS011;41776;48.260;8.928;2023-06-26T09:51:09;8.00;;;4.60;;
1725;SDS011;41776;48.260;8.928;2023-06-26T09:53:35;6.47;;;4.20;;
1725;SDS011;41776;48.260;8.928;2023-06-26T09:56:04;8.85;;;4.60;;
1725;SDS011;41776;48.260;8.928;2023-06-26T09:58:32;6.65;;;4.40;;
1725;SDS011;41776;48.260;8.928;2023-06-26T10:01:00;8.93;;;4.55;;
1725;SDS011;41776;48.260;8.928;2023-06-26T10:03:27;8.15;;;4.18;;
1725;SDS011;41776;48.260;8.928;2023-06-26T10:05:53;8.35;;;4.60;;
1725;SDS011;41776;48.260;8.928;2023-06-26T10:08:21;7.30;;;4.82;;
1725;SDS011;41776;48.260;8.928;2023-06-26T10:10:47;6.30;;;4.20;;
1725;SDS011;41776;48.260;8.928;2023-06-26T10:13:15;7.85;;;4.55;;
1725;SDS011;41776;48.260;8.928;2023-06-26T10:15:50;7.10;;;4.60;;
1725;SDS011;41776;48.260;8.928;2023-06-26T10:18:18;6.53;;;4.57;;
1725;SDS011;41776;48.260;8.928;2023-06-26T10:20:50;6.63;;;4.63;;
1725;SDS011;41776;48.260;8.928;2023-06-26T10:23:19;6.15;;;4.32;;
1725;SDS011;41776;48.260;8.928;2023-06-26T10:25:49;6.63;;;4.53;;
1725;SDS011;41776;48.260;8.928;2023-06-26T10:28:18;6.00;;;4.32;;
1725;SDS011;41776;48.260;8.928;2023-06-26T10:30:49;9.93;;;4.80;;
1725;SDS011;41776;48.260;8.928;2023-06-26T10:33:19;7.57;;;4.70;;
1725;SDS011;41776;48.260;8.928;2023-06-26T10:35:46;7.03;;;4.65;;
1725;SDS011;41776;48.260;8.928;2023-06-26T10:38:14;7.40;;;4.57;;
1725;SDS011;41776;48.260;8.928;2023-06-26T10:40:41;6.55;;;4.10;;
1725;SDS011;41776;48.260;8.928;2023-06-26T10:43:09;15.77;;;4.57;;
1725;SDS011;41776;48.260;8.928;2023-06-26T10:45:42;6.90;;;4.78;;
1725;SDS011;41776;48.260;8.928;2023-06-26T10:48:10;7.13;;;4.70;;
1725;SDS011;41776;48.260;8.928;2023-06-26T10:50:40;13.60;;;5.10;;
1725;SDS011;41776;48.260;8.928;2023-06-26T10:53:15;13.00;;;4.60;;
1725;SDS011;41776;48.260;8.928;2023-06-26T10:55:47;12.05;;;5.07;;
1725;SDS011;41776;48.260;8.928;2023-06-26T10:58:28;9.25;;;4.82;;
1725;SDS011;41776;48.260;8.928;2023-06-26T11:01:14;17.08;;;5.13;;
1725;SDS011;41776;48.260;8.928;2023-06-26T11:03:44;7.70;;;4.95;;
1725;SDS011;41776;48.260;8.928;2023-06-26T11:06:13;7.15;;;5.13;;
1725;SDS011;41776;48.260;8.928;2023-06-26T11:08:44;7.18;;;4.80;;
1725;SDS011;41776;48.260;8.928;2023-06-26T11:11:19;9.88;;;5.25;;
1725;SDS011;41776;48.260;8.928;2023-06-26T11:13:46;9.45;;;5.63;;
1725;SDS011;41776;48.260;8.928;2023-06-26T11:16:14;8.65;;;5.13;;
1725;SDS011;41776;48.260;8.928;2023-06-26T11:18:41;10.95;;;5.35;;
1725;SDS011;41776;48.260;8.928;2023-06-26T11:21:11;9.23;;;5.97;;
1725;SDS011;41776;48.260;8.928;2023-06-26T11:23:41;7.82;;;4.78;;
1725;SDS011;41776;48.260;8.928;2023-06-26T11:26:14;9.18;;;5.50;;
1725;SDS011;41776;48.260;8.928;2023-06-26T11:28:45;9.23;;;5.43;;
1725;SDS011;41776;48.260;8.928;2023-06-26T11:31:26;7.70;;;4.90;;
1725;SDS011;41776;48.260;8.928;2023-06-26T11:33:55;8.35;;;5.82;;
1725;SDS011;41776;48.260;8.928;2023-06-26T11:36:23;8.63;;;5.35;;
1725;SDS011;41776;48.260;8.928;2023-06-26T11:38:55;6.40;;;4.85;;
1725;SDS011;41776;48.260;8.928;2023-06-26T11:41:22;6.72;;;4.90;;
1725;SDS011;41776;48.260;8.928;2023-06-26T11:43:49;6.97;;;5.18;;
1725;SDS011;41776;48.260;8.928;2023-06-26T11:46:17;6.95;;;4.68;;
1725;SDS011;41776;48.260;8.928;2023-06-26T11:48:45;7.43;;;5.40;;
1725;SDS011;41776;48.260;8.928;2023-06-26T11:51:12;7.68;;;5.18;;
1725;SDS011;41776;48.260;8.928;2023-06-26T11:53:39;7.97;;;5.45;;
1725;SDS011;41776;48.260;8.928;2023-06-26T11:56:11;9.15;;;4.93;;
1725;SDS011;41776;48.260;8.928;2023-06-26T12:01:24;9.02;;;5.25;;
1725;SDS011;41776;48.260;8.928;2023-06-26T12:03:51;8.02;;;5.63;;
1725;SDS011;41776;48.260;8.928;2023-06-26T12:06:19;7.00;;;4.95;;
1725;SDS011;41776;48.260;8.928;2023-06-26T12:08:46;8.38;;;4.85;;
1725;SDS011;41776;48.260;8.928;2023-06-26T12:11:14;10.63;;;5.20;;
1725;SDS011;41776;48.260;8.928;2023-06-26T12:13:41;8.27;;;5.40;;
1725;SDS011;41776;48.260;8.928;2023-06-26T12:16:07;8.30;;;5.22;;
1725;SDS011;41776;48.260;8.928;2023-06-26T12:18:34;9.80;;;5.20;;
1725;SDS011;41776;48.260;8.928;2023-06-26T12:21:01;6.35;;;5.00;;
1725;SDS011;41776;48.260;8.928;2023-06-26T12:23:31;8.00;;;5.32;;
1725;SDS011;41776;48.260;8.928;2023-06-26T12:25:58;9.30;;;5.70;;
1725;SDS011;41776;48.260;8.928;2023-06-26T12:28:26;8.23;;;5.57;;
1725;SDS011;41776;48.260;8.928;2023-06-26T12:33:42;9.90;;;5.50;;
1725;SDS011;41776;48.260;8.928;2023-06-26T12:36:10;8.27;;;5.07;;
1725;SDS011;41776;48.260;8.928;2023-06-26T12:38:37;11.15;;;5.60;;
1725;SDS011;41776;48.260;8.928;2023-06-26T12:41:03;9.85;;;5.80;;
1725;SDS011;41776;48.260;8.928;2023-06-26T12:43:31;8.38;;;5.68;;
1725;SDS011;41776;48.260;8.928;2023-06-26T12:45:58;8.55;;;5.90;;
1725;SDS011;41776;48.260;8.928;2023-06-26T12:48:36;10.18;;;5.80;;
1725;SDS011;41776;48.260;8.928;2023-06-26T12:51:07;8.23;;;5.45;;
1725;SDS011;41776;48.260;8.928;2023-06-26T12:53:34;7.75;;;5.35;;
1725;SDS011;41776;48.260;8.928;2023-06-26T12:56:01;8.13;;;5.53;;
1725;SDS011;41776;48.260;8.928;2023-06-26T12:58:28;8.45;;;5.80;;
1725;SDS011;41776;48.260;8.928;2023-06-26T13:00:55;10.35;;;5.72;;
1725;SDS011;41776;48.260;8.928;2023-06-26T13:03:23;8.43;;;5.63;;
1725;SDS011;41776;48.260;8.928;2023-06-26T13:05:49;14.35;;;6.32;;
1725;SDS011;41776;48.260;8.928;2023-06-26T13:08:16;10.25;;;5.88;;
1725;SDS011;41776;48.260;8.928;2023-06-26T13:10:43;8.93;;;5.95;;
1725;SDS011;41776;48.260;8.928;2023-06-26T13:13:10;14.15;;;6.45;;
1725;SDS011;41776;48.260;8.928;2023-06-26T13:15:37;10.70;;;6.40;;
1725;SDS011;41776;48.260;8.928;2023-06-26T13:18:05;10.48;;;6.45;;
1725;SDS011;41776;48.260;8.928;2023-06-26T13:20:31;8.32;;;5.35;;
1725;SDS011;41776;48.260;8.928;2023-06-26T13:22:58;12.10;;;6.18;;
1725;SDS011;41776;48.260;8.928;2023-06-26T13:25:24;9.85;;;5.93;;
1725;SDS011;41776;48.260;8.928;2023-06-26T13:27:51;10.57;;;6.03;;
1725;SDS011;41776;48.260;8.928;2023-06-26T13:30:17;8.38;;;5.63;;
1725;SDS011;41776;48.260;8.928;2023-06-26T13:32:44;10.10;;;5.90;;
1725;SDS011;41776;48.260;8.928;2023-06-26T13:35:12;9.07;;;5.35;;
1725;SDS011;41776;48.260;8.928;2023-06-26T13:37:40;9.50;;;5.88;;
1725;SDS011;41776;48.260;8.928;2023-06-26T13:40:08;10.93;;;5.35;;
1725;SDS011;41776;48.260;8.928;2023-06-26T13:42:35;10.23;;;5.15;;
1725;SDS011;41776;48.260;8.928;2023-06-26T13:45:01;8.13;;;5.13;;
1725;SDS011;41776;48.260;8.928;2023-06-26T13:47:29;11.05;;;5.05;;
1725;SDS011;41776;48.260;8.928;2023-06-26T13:49:55;7.65;;;5.40;;
1725;SDS011;41776;48.260;8.928;2023-06-26T13:52:23;11.55;;;5.00;;
1725;SDS011;41776;48.260;8.928;2023-06-26T13:54:49;9.20;;;5.40;;
1725;SDS011;41776;48.260;8.928;2023-06-26T13:57:16;5.85;;;4.90;;
1725;SDS011;41776;48.260;8.928;2023-06-26T13:59:44;13.40;;;5.43;;
1725;SDS011;41776;48.260;8.928;2023-06-26T14:02:10;10.80;;;5.15;;
1725;SDS011;41776;48.260;8.928;2023-06-26T14:04:37;11.88;;;5.28;;
1725;SDS011;41776;48.260;8.928;2023-06-26T14:07:04;8.13;;;5.30;;
1725;SDS011;41776;48.260;8.928;2023-06-26T14:09:32;6.70;;;5.32;;
1725;SDS011;41776;48.260;8.928;2023-06-26T14:11:58;14.27;;;5.60;;
1725;SDS011;41776;48.260;8.928;2023-06-26T14:14:25;7.95;;;5.05;;
1725;SDS011;41776;48.260;8.928;2023-06-26T14:16:51;9.63;;;4.90;;
1725;SDS011;41776;48.260;8.928;2023-06-26T14:19:18;6.88;;;5.03;;
1725;SDS011;41776;48.260;8.928;2023-06-26T14:21:44;7.70;;;5.00;;
1725;SDS011;41776;48.260;8.928;2023-06-26T14:24:11;8.20;;;5.18;;
1725;SDS011;41776;48.260;8.928;2023-06-26T14:26:38;7.55;;;4.63;;
1725;SDS011;41776;48.260;8.928;2023-06-26T14:29:05;6.13;;;4.70;;
1725;SDS011;41776;48.260;8.928;2023-06-26T14:31:32;8.00;;;4.85;;
1725;SDS011;41776;48.260;8.928;2023-06-26T14:33:58;9.43;;;4.78;;
1725;SDS011;41776;48.260;8.928;2023-06-26T14:36:25;9.43;;;4.90;;
1725;SDS011;41776;48.260;8.928;2023-06-26T14:38:51;6.82;;;4.75;;
1725;SDS011;41776;48.260;8.928;2023-06-26T14:41:18;6.22;;;4.43;;
1725;SDS011;41776;48.260;8.928;2023-06-26T14:43:46;9.68;;;4.38;;
1725;SDS011;41776;48.260;8.928;2023-06-26T14:46:13;6.40;;;4.32;;
1725;SDS011;41776;48.260;8.928;2023-06-26T14:48:40;7.68;;;4.63;;
1725;SDS011;41776;48.260;8.928;2023-06-26T14:51:06;7.65;;;4.78;;
1725;SDS011;41776;48.260;8.928;2023-06-26T14:53:32;9.15;;;4.80;;
1725;SDS011;41776;48.260;8.928;2023-06-26T14:55:59;7.20;;;5.10;;
1725;SDS011;41776;48.260;8.928;2023-06-26T14:58:25;12.10;;;5.05;;
1725;SDS011;41776;48.260;8.928;2023-06-26T15:00:53;8.93;;;4.55;;
1725;SDS011;41776;48.260;8.928;2023-06-26T15:03:19;6.30;;;4.85;;
1725;SDS011;41776;48.260;8.928;2023-06-26T15:05:46;7.18;;;4.90;;